Allegre, Kentucky
Current Conditions -  °F | °C
As of 12:58 AM on Wednesday 22 Oct 2014 (Local Time) from KHOP Reporting Station
Clear Clear  
Wind Chill:   Ceiling: Unl
Heat Index:   Visibility: 10mi
Dew Point:   Wind: 6mph
Humidity: 85%   Direction: 10°N
Pressure: 30.15"   Gusts: NA
Location:  36.93°N, 87.22°W
Report Text: KHOP 220558Z AUTO 01005KT 10SM CLR 08/06 A3015 RMK AO2 SLP210 T00790056 10137 20078 402100077 50000
Loading
Personal Weather Stations






























Interactive Weather Map
Tropical Storm Tracking
New forecast layout! Learn more

10-Day Weather Forecast

Advertisements
Track Severe Weather on mobile